sensor_id;sensor_type;location;lat;lon;timestamp;pressure;altitude;pressure_sealevel;temperature;humidity
7614;BME280;3848;42.016;23.098;2024-01-06T00:00:00;96926.09;;;8.93;100.00
7614;BME280;3848;42.016;23.098;2024-01-06T00:02:28;96919.38;;;8.86;100.00
7614;BME280;3848;42.016;23.098;2024-01-06T00:04:55;96932.91;;;8.82;100.00
7614;BME280;3848;42.016;23.098;2024-01-06T00:07:22;96912.75;;;8.62;100.00
7614;BME280;3848;42.016;23.098;2024-01-06T00:09:49;96938.00;;;8.74;100.00
7614;BME280;3848;42.016;23.098;2024-01-06T00:12:16;96925.41;;;8.59;100.00
7614;BME280;3848;42.016;23.098;2024-01-06T00:14:45;96933.00;;;8.61;100.00
7614;BME280;3848;42.016;23.098;2024-01-06T00:17:12;96940.63;;;8.58;100.00
7614;BME280;3848;42.016;23.098;2024-01-06T00:19:39;96947.38;;;8.52;100.00
7614;BME280;3848;42.016;23.098;2024-01-06T00:22:06;96951.59;;;8.49;100.00
7614;BME280;3848;42.016;23.098;2024-01-06T00:24:33;96954.16;;;8.43;100.00
7614;BME280;3848;42.016;23.098;2024-01-06T00:27:00;96936.44;;;8.41;100.00
7614;BME280;3848;42.016;23.098;2024-01-06T00:29:27;96938.16;;;8.36;100.00
7614;BME280;3848;42.016;23.098;2024-01-06T00:31:55;96944.03;;;8.23;100.00
7614;BME280;3848;42.016;23.098;2024-01-06T00:34:22;96955.88;;;8.18;100.00
7614;BME280;3848;42.016;23.098;2024-01-06T00:36:49;96954.19;;;8.17;100.00
7614;BME280;3848;42.016;23.098;2024-01-06T00:39:16;96956.72;;;8.15;100.00
7614;BME280;3848;42.016;23.098;2024-01-06T00:41:44;96954.16;;;8.11;100.00
7614;BME280;3848;42.016;23.098;2024-01-06T00:44:11;96940.72;;;7.93;100.00
7614;BME280;3848;42.016;23.098;2024-01-06T00:46:39;96954.19;;;8.08;100.00
7614;BME280;3848;42.016;23.098;2024-01-06T00:49:07;96951.66;;;8.05;100.00
7614;BME280;3848;42.016;23.098;2024-01-06T00:51:34;96950.81;;;8.01;100.00
7614;BME280;3848;42.016;23.098;2024-01-06T00:54:01;96947.44;;;8.04;100.00
7614;BME280;3848;42.016;23.098;2024-01-06T00:56:28;96952.50;;;8.04;100.00
7614;BME280;3848;42.016;23.098;2024-01-06T00:58:55;96940.72;;;7.93;100.00
7614;BME280;3848;42.016;23.098;2024-01-06T01:01:22;96955.88;;;8.04;100.00
7614;BME280;3848;42.016;23.098;2024-01-06T01:03:49;96954.19;;;8.05;100.00
7614;BME280;3848;42.016;23.098;2024-01-06T01:06:17;96953.34;;;8.03;100.00
7614;BME280;3848;42.016;23.098;2024-01-06T01:08:44;96945.78;;;7.98;100.00
7614;BME280;3848;42.016;23.098;2024-01-06T01:11:11;96955.06;;;7.98;100.00
7614;BME280;3848;42.016;23.098;2024-01-06T01:13:38;96951.66;;;7.99;100.00
7614;BME280;3848;42.016;23.098;2024-01-06T01:16:05;96948.31;;;7.97;100.00
7614;BME280;3848;42.016;23.098;2024-01-06T01:18:33;96944.94;;;7.91;100.00
7614;BME280;3848;42.016;23.098;2024-01-06T01:20:59;96938.19;;;7.97;100.00
7614;BME280;3848;42.016;23.098;2024-01-06T01:23:28;96939.88;;;7.94;100.00
7614;BME280;3848;42.016;23.098;2024-01-06T01:25:55;96946.63;;;7.95;100.00
7614;BME280;3848;42.016;23.098;2024-01-06T01:28:22;96934.81;;;7.91;100.00
7614;BME280;3848;42.016;23.098;2024-01-06T01:30:49;96933.94;;;7.91;100.00
7614;BME280;3848;42.016;23.098;2024-01-06T01:33:16;96928.88;;;7.91;100.00
7614;BME280;3848;42.016;23.098;2024-01-06T01:35:43;96926.38;;;7.92;100.00
7614;BME280;3848;42.016;23.098;2024-01-06T01:38:10;96916.25;;;7.86;100.00
7614;BME280;3848;42.016;23.098;2024-01-06T01:40:38;96906.97;;;7.87;100.00
7614;BME280;3848;42.016;23.098;2024-01-06T01:43:05;96914.56;;;7.88;100.00
7614;BME280;3848;42.016;23.098;2024-01-06T01:45:32;96898.53;;;7.89;100.00
7614;BME280;3848;42.016;23.098;2024-01-06T01:47:59;96869.06;;;7.62;100.00
7614;BME280;3848;42.016;23.098;2024-01-06T01:50:26;96903.59;;;7.89;100.00
7614;BME280;3848;42.016;23.098;2024-01-06T01:52:56;96902.78;;;7.84;100.00
7614;BME280;3848;42.016;23.098;2024-01-06T01:55:23;96901.94;;;7.84;100.00
7614;BME280;3848;42.016;23.098;2024-01-06T01:57:51;96887.63;;;7.77;100.00
7614;BME280;3848;42.016;23.098;2024-01-06T02:00:19;96869.91;;;7.68;100.00
7614;BME280;3848;42.016;23.098;2024-01-06T02:02:47;96877.50;;;7.75;100.00
7614;BME280;3848;42.016;23.098;2024-01-06T02:05:14;96883.41;;;7.67;100.00
7614;BME280;3848;42.016;23.098;2024-01-06T02:07:41;96872.44;;;7.63;100.00
7614;BME280;3848;42.016;23.098;2024-01-06T02:10:08;96880.88;;;7.62;100.00
7614;BME280;3848;42.016;23.098;2024-01-06T02:12:35;96866.56;;;7.56;100.00
7614;BME280;3848;42.016;23.098;2024-01-06T02:15:05;96854.78;;;7.54;100.00
7614;BME280;3848;42.016;23.098;2024-01-06T02:17:32;96855.63;;;7.50;100.00
7614;BME280;3848;42.016;23.098;2024-01-06T02:19:59;96835.41;;;7.34;100.00
7614;BME280;3848;42.016;23.098;2024-01-06T02:22:27;96848.03;;;7.33;100.00
7614;BME280;3848;42.016;23.098;2024-01-06T02:24:54;96842.13;;;7.36;100.00
7614;BME280;3848;42.016;23.098;2024-01-06T02:27:21;96854.78;;;7.32;100.00
7614;BME280;3848;42.016;23.098;2024-01-06T02:29:48;96857.28;;;7.26;100.00
7614;BME280;3848;42.016;23.098;2024-01-06T02:32:15;96868.22;;;7.21;100.00
7614;BME280;3848;42.016;23.098;2024-01-06T02:34:42;96858.13;;;7.15;100.00
7614;BME280;3848;42.016;23.098;2024-01-06T02:37:09;96858.97;;;7.15;100.00
7614;BME280;3848;42.016;23.098;2024-01-06T02:39:37;96855.59;;;7.13;100.00
7614;BME280;3848;42.016;23.098;2024-01-06T02:42:05;96850.56;;;7.13;100.00
7614;BME280;3848;42.016;23.098;2024-01-06T02:44:32;96851.38;;;7.15;100.00
7614;BME280;3848;42.016;23.098;2024-01-06T02:46:59;96845.50;;;7.13;100.00
7614;BME280;3848;42.016;23.098;2024-01-06T02:49:26;96836.25;;;7.12;100.00
7614;BME280;3848;42.016;23.098;2024-01-06T02:51:53;96831.19;;;7.09;100.00
7614;BME280;3848;42.016;23.098;2024-01-06T02:54:20;96818.53;;;7.00;100.00
7614;BME280;3848;42.016;23.098;2024-01-06T02:56:48;96834.53;;;7.07;100.00
7614;BME280;3848;42.016;23.098;2024-01-06T02:59:15;96821.06;;;7.01;100.00
7614;BME280;3848;42.016;23.098;2024-01-06T03:01:42;96826.09;;;7.00;100.00
7614;BME280;3848;42.016;23.098;2024-01-06T03:04:09;96826.94;;;6.96;100.00
7614;BME280;3848;42.016;23.098;2024-01-06T03:06:36;96818.53;;;6.91;100.00
7614;BME280;3848;42.016;23.098;2024-01-06T03:09:03;96813.50;;;6.88;100.00
7614;BME280;3848;42.016;23.098;2024-01-06T03:11:30;96815.97;;;6.86;100.00
7614;BME280;3848;42.016;23.098;2024-01-06T03:13:58;96814.31;;;6.91;100.00
7614;BME280;3848;42.016;23.098;2024-01-06T03:16:25;96806.75;;;7.19;100.00
7614;BME280;3848;42.016;23.098;2024-01-06T03:18:52;96812.59;;;7.63;100.00
7614;BME280;3848;42.016;23.098;2024-01-06T03:21:20;96798.13;;;8.19;100.00
7614;BME280;3848;42.016;23.098;2024-01-06T03:23:48;96807.22;;;8.63;100.00
7614;BME280;3848;42.016;23.098;2024-01-06T03:26:16;96812.97;;;8.86;100.00
7614;BME280;3848;42.016;23.098;2024-01-06T03:28:42;96820.53;;;8.92;100.00
7614;BME280;3848;42.016;23.098;2024-01-06T03:31:10;96812.84;;;9.04;100.00
7614;BME280;3848;42.016;23.098;2024-01-06T03:33:37;96813.59;;;9.20;100.00
7614;BME280;3848;42.016;23.098;2024-01-06T03:36:05;96824.44;;;9.33;100.00
7614;BME280;3848;42.016;23.098;2024-01-06T03:38:33;96817.56;;;9.47;100.00
7614;BME280;3848;42.016;23.098;2024-01-06T03:41:00;96830.13;;;9.64;100.00
7614;BME280;3848;42.016;23.098;2024-01-06T03:43:27;96821.59;;;9.69;100.00
7614;BME280;3848;42.016;23.098;2024-01-06T03:45:54;96808.19;;;9.57;100.00
7614;BME280;3848;42.016;23.098;2024-01-06T03:48:24;96835.31;;;9.47;100.00
7614;BME280;3848;42.016;23.098;2024-01-06T03:50:51;96833.81;;;9.26;100.00
7614;BME280;3848;42.016;23.098;2024-01-06T03:53:18;96822.94;;;9.10;100.00
7614;BME280;3848;42.016;23.098;2024-01-06T03:55:45;96819.66;;;8.95;100.00
7614;BME280;3848;42.016;23.098;2024-01-06T03:58:12;96820.56;;;8.86;100.00
7614;BME280;3848;42.016;23.098;2024-01-06T04:00:39;96818.91;;;8.83;100.00
7614;BME280;3848;42.016;23.098;2024-01-06T04:03:06;96811.34;;;8.74;100.00
7614;BME280;3848;42.016;23.098;2024-01-06T04:05:35;96810.50;;;8.74;100.00
7614;BME280;3848;42.016;23.098;2024-01-06T04:08:03;96813.88;;;8.80;100.00
7614;BME280;3848;42.016;23.098;2024-01-06T04:10:30;96806.22;;;8.86;100.00
7614;BME280;3848;42.016;23.098;2024-01-06T04:12:57;96710.22;;;8.54;100.00
7614;BME280;3848;42.016;23.098;2024-01-06T04:15:24;96804.97;;;9.41;100.00
7614;BME280;3848;42.016;23.098;2024-01-06T04:17:51;96792.97;;;9.57;100.00
7614;BME280;3848;42.016;23.098;2024-01-06T04:20:18;96791.94;;;9.74;100.00
7614;BME280;3848;42.016;23.098;2024-01-06T04:22:47;96803.63;;;9.91;100.00
7614;BME280;3848;42.016;23.098;2024-01-06T04:25:14;96795.91;;;10.00;100.00
7614;BME280;3848;42.016;23.098;2024-01-06T04:27:41;96797.72;;;9.89;100.00
7614;BME280;3848;42.016;23.098;2024-01-06T04:30:09;96777.06;;;9.42;100.00
7614;BME280;3848;42.016;23.098;2024-01-06T04:32:36;96801.63;;;9.33;100.00
7614;BME280;3848;42.016;23.098;2024-01-06T04:35:03;96812.78;;;9.12;100.00
7614;BME280;3848;42.016;23.098;2024-01-06T04:37:31;96811.22;;;8.94;100.00
7614;BME280;3848;42.016;23.098;2024-01-06T04:39:59;96794.50;;;8.69;100.00
7614;BME280;3848;42.016;23.098;2024-01-06T04:42:26;96810.63;;;8.59;100.00
7614;BME280;3848;42.016;23.098;2024-01-06T04:44:53;96809.03;;;8.41;100.00
7614;BME280;3848;42.016;23.098;2024-01-06T04:47:20;96816.63;;;8.30;100.00
7614;BME280;3848;42.016;23.098;2024-01-06T04:49:47;96805.72;;;8.17;100.00
7614;BME280;3848;42.016;23.098;2024-01-06T04:52:14;96815.00;;;8.08;100.00
7614;BME280;3848;42.016;23.098;2024-01-06T04:54:41;96809.16;;;8.00;100.00
7614;BME280;3848;42.016;23.098;2024-01-06T04:57:09;96798.25;;;7.79;100.00
7614;BME280;3848;42.016;23.098;2024-01-06T04:59:36;96813.41;;;7.79;100.00
7614;BME280;3848;42.016;23.098;2024-01-06T05:02:04;96808.41;;;7.72;100.00
7614;BME280;3848;42.016;23.098;2024-01-06T05:04:31;96816.81;;;7.68;100.00
7614;BME280;3848;42.016;23.098;2024-01-06T05:06:58;96808.41;;;7.61;100.00
7614;BME280;3848;42.016;23.098;2024-01-06T05:09:25;96800.00;;;7.53;100.00
7614;BME280;3848;42.016;23.098;2024-01-06T05:11:52;96797.47;;;7.50;100.00
7614;BME280;3848;42.016;23.098;2024-01-06T05:14:20;96791.56;;;7.48;100.00
7614;BME280;3848;42.016;23.098;2024-01-06T05:16:47;96789.88;;;7.44;100.00
7614;BME280;3848;42.016;23.098;2024-01-06T05:19:14;96789.03;;;7.42;100.00
7614;BME280;3848;42.016;23.098;2024-01-06T05:21:45;96784.84;;;7.42;100.00
7614;BME280;3848;42.016;23.098;2024-01-06T05:24:13;96781.47;;;7.36;100.00
7614;BME280;3848;42.016;23.098;2024-01-06T05:26:40;96778.97;;;7.32;100.00
7614;BME280;3848;42.016;23.098;2024-01-06T05:29:07;96778.97;;;7.32;100.00
7614;BME280;3848;42.016;23.098;2024-01-06T05:31:36;96784.00;;;7.26;100.00
7614;BME280;3848;42.016;23.098;2024-01-06T05:34:03;96782.31;;;7.25;100.00
7614;BME280;3848;42.016;23.098;2024-01-06T05:36:30;96776.44;;;7.22;100.00
7614;BME280;3848;42.016;23.098;2024-01-06T05:38:57;96761.28;;;7.11;100.00
7614;BME280;3848;42.016;23.098;2024-01-06T05:41:24;96766.34;;;7.14;100.00
7614;BME280;3848;42.016;23.098;2024-01-06T05:43:51;96768.88;;;7.08;100.00
7614;BME280;3848;42.016;23.098;2024-01-06T05:46:38;96762.13;;;6.96;100.00
7614;BME280;3848;42.016;23.098;2024-01-06T05:49:05;96768.88;;;6.91;100.00
7614;BME280;3848;42.016;23.098;2024-01-06T05:51:32;96755.41;;;6.92;100.00
7614;BME280;3848;42.016;23.098;2024-01-06T05:53:59;96768.03;;;6.91;100.00
7614;BME280;3848;42.016;23.098;2024-01-06T05:56:26;96740.22;;;6.82;100.00
7614;BME280;3848;42.016;23.098;2024-01-06T05:58:54;96747.00;;;6.87;100.00
7614;BME280;3848;42.016;23.098;2024-01-06T06:01:21;96747.81;;;6.89;100.00
7614;BME280;3848;42.016;23.098;2024-01-06T06:03:50;96751.19;;;6.93;100.00
7614;BME280;3848;42.016;23.098;2024-01-06T06:06:17;96746.13;;;6.93;100.00
7614;BME280;3848;42.016;23.098;2024-01-06T06:08:44;96747.81;;;6.97;100.00
7614;BME280;3848;42.016;23.098;2024-01-06T06:11:11;96752.03;;;6.96;100.00
7614;BME280;3848;42.016;23.098;2024-01-06T06:13:39;96733.53;;;6.88;100.00
7614;BME280;3848;42.016;23.098;2024-01-06T06:16:06;96753.69;;;7.00;100.00
7614;BME280;3848;42.016;23.098;2024-01-06T06:18:33;96746.97;;;6.99;100.00
7614;BME280;3848;42.016;23.098;2024-01-06T06:21:02;96741.06;;;7.05;100.00
7614;BME280;3848;42.016;23.098;2024-01-06T06:23:29;96733.50;;;7.08;100.00
7614;BME280;3848;42.016;23.098;2024-01-06T06:25:56;96737.72;;;7.14;100.00
7614;BME280;3848;42.016;23.098;2024-01-06T06:28:24;96721.72;;;7.09;100.00
7614;BME280;3848;42.016;23.098;2024-01-06T06:30:51;96730.94;;;7.20;100.00
7614;BME280;3848;42.016;23.098;2024-01-06T06:33:18;96729.28;;;7.19;100.00
7614;BME280;3848;42.016;23.098;2024-01-06T06:35:45;96724.22;;;7.22;100.00
7614;BME280;3848;42.016;23.098;2024-01-06T06:38:13;96719.16;;;7.25;100.00
7614;BME280;3848;42.016;23.098;2024-01-06T06:40:40;96725.88;;;7.28;100.00
7614;BME280;3848;42.016;23.098;2024-01-06T06:43:07;96715.78;;;7.32;100.00
7614;BME280;3848;42.016;23.098;2024-01-06T06:45:34;96717.44;;;7.40;100.00
7614;BME280;3848;42.016;23.098;2024-01-06T06:48:01;96714.91;;;7.43;100.00
7614;BME280;3848;42.016;23.098;2024-01-06T06:50:28;96724.16;;;7.44;100.00
7614;BME280;3848;42.016;23.098;2024-01-06T06:52:55;96717.41;;;7.47;100.00
7614;BME280;3848;42.016;23.098;2024-01-06T06:55:24;96723.31;;;7.54;100.00
7614;BME280;3848;42.016;23.098;2024-01-06T06:57:51;96716.56;;;7.56;100.00
7614;BME280;3848;42.016;23.098;2024-01-06T07:00:19;96701.44;;;7.42;100.00
7614;BME280;3848;42.016;23.098;2024-01-06T07:02:46;96717.38;;;7.62;100.00
7614;BME280;3848;42.016;23.098;2024-01-06T07:05:13;96725.78;;;7.72;100.00
7614;BME280;3848;42.016;23.098;2024-01-06T07:07:40;96721.53;;;7.77;100.00
7614;BME280;3848;42.016;23.098;2024-01-06T07:10:09;96710.53;;;7.84;100.00
7614;BME280;3848;42.016;23.098;2024-01-06T07:12:40;96716.41;;;7.91;100.00
7614;BME280;3848;42.016;23.098;2024-01-06T07:15:08;96713.88;;;7.95;100.00
7614;BME280;3848;42.016;23.098;2024-01-06T07:17:35;96713.00;;;8.03;100.00
7614;BME280;3848;42.016;23.098;2024-01-06T07:20:04;96718.00;;;8.10;100.00
7614;BME280;3848;42.016;23.098;2024-01-06T07:22:32;96718.00;;;8.18;100.00
7614;BME280;3848;42.016;23.098;2024-01-06T07:25:00;96717.09;;;8.23;100.00
7614;BME280;3848;42.016;23.098;2024-01-06T07:27:27;96709.47;;;8.30;100.00
7614;BME280;3848;42.016;23.098;2024-01-06T07:29:56;96728.00;;;8.41;100.00
7614;BME280;3848;42.016;23.098;2024-01-06T07:32:23;96699.34;;;8.36;100.00
7614;BME280;3848;42.016;23.098;2024-01-06T07:34:50;96723.72;;;8.50;100.00
7614;BME280;3848;42.016;23.098;2024-01-06T07:37:17;96723.66;;;8.60;100.00
7614;BME280;3848;42.016;23.098;2024-01-06T07:39:44;96725.38;;;8.58;100.00
7614;BME280;3848;42.016;23.098;2024-01-06T07:42:11;96737.94;;;8.68;100.00
7614;BME280;3848;42.016;23.098;2024-01-06T07:44:38;96734.53;;;8.75;100.00
7614;BME280;3848;42.016;23.098;2024-01-06T07:47:06;96730.25;;;8.82;100.00
7614;BME280;3848;42.016;23.098;2024-01-06T07:49:33;96732.69;;;8.96;100.00
7614;BME280;3848;42.016;23.098;2024-01-06T07:52:00;96741.91;;;9.04;100.00
7614;BME280;3848;42.016;23.098;2024-01-06T07:54:27;96742.69;;;9.11;100.00
7614;BME280;3848;42.016;23.098;2024-01-06T07:56:54;96740.91;;;9.21;100.00
7614;BME280;3848;42.016;23.098;2024-01-06T07:59:22;96691.19;;;9.07;100.00
7614;BME280;3848;42.016;23.098;2024-01-06T08:01:49;96730.53;;;9.45;100.00
7614;BME280;3848;42.016;23.098;2024-01-06T08:04:17;96725.31;;;9.57;100.00
7614;BME280;3848;42.016;23.098;2024-01-06T08:06:44;96725.19;;;9.69;100.00
7614;BME280;3848;42.016;23.098;2024-01-06T08:09:11;96727.59;;;9.82;100.00
7614;BME280;3848;42.016;23.098;2024-01-06T08:11:38;96721.53;;;9.93;100.00
7614;BME280;3848;42.016;23.098;2024-01-06T08:14:05;96715.53;;;9.99;100.00
7614;BME280;3848;42.016;23.098;2024-01-06T08:16:33;96703.59;;;10.07;100.00
7614;BME280;3848;42.016;23.098;2024-01-06T08:19:00;96693.44;;;10.07;100.00
7614;BME280;3848;42.016;23.098;2024-01-06T08:21:29;96683.19;;;10.15;100.00
7614;BME280;3848;42.016;23.098;2024-01-06T08:23:56;96714.19;;;10.41;100.00
7614;BME280;3848;42.016;23.098;2024-01-06T08:26:23;96717.41;;;10.51;100.00
7614;BME280;3848;42.016;23.098;2024-01-06T08:28:50;96711.31;;;10.61;100.00
7614;BME280;3848;42.016;23.098;2024-01-06T08:31:17;96706.97;;;10.69;100.00
7614;BME280;3848;42.016;23.098;2024-01-06T08:33:44;96686.59;;;10.72;100.00
7614;BME280;3848;42.016;23.098;2024-01-06T08:36:11;96700.38;;;11.10;100.00
7614;BME280;3848;42.016;23.098;2024-01-06T08:38:39;96695.56;;;11.42;100.00
7614;BME280;3848;42.016;23.098;2024-01-06T08:41:06;96688.88;;;11.83;100.00
7614;BME280;3848;42.016;23.098;2024-01-06T08:43:33;96685.72;;;12.12;100.00
7614;BME280;3848;42.016;23.098;2024-01-06T08:46:00;96685.22;;;12.35;100.00
7614;BME280;3848;42.016;23.098;2024-01-06T08:48:27;96678.66;;;12.62;100.00
7614;BME280;3848;42.016;23.098;2024-01-06T08:50:55;96638.84;;;12.58;100.00
7614;BME280;3848;42.016;23.098;2024-01-06T08:53:22;96670.72;;;13.08;100.00
7614;BME280;3848;42.016;23.098;2024-01-06T08:55:50;96676.66;;;13.42;100.00
7614;BME280;3848;42.016;23.098;2024-01-06T08:58:17;96673.19;;;13.76;100.00
7614;BME280;3848;42.016;23.098;2024-01-06T09:00:44;96676.03;;;13.95;100.00
7614;BME280;3848;42.016;23.098;2024-01-06T09:03:11;96651.72;;;14.11;100.00
7614;BME280;3848;42.016;23.098;2024-01-06T09:05:39;96677.38;;;14.36;100.00
7614;BME280;3848;42.016;23.098;2024-01-06T09:08:06;96668.50;;;14.49;100.00
7614;BME280;3848;42.016;23.098;2024-01-06T09:10:33;96663.75;;;14.65;100.00
7614;BME280;3848;42.016;23.098;2024-01-06T09:13:02;96675.00;;;14.86;100.00
7614;BME280;3848;42.016;23.098;2024-01-06T09:15:29;96663.41;;;15.02;100.00
7614;BME280;3848;42.016;23.098;2024-01-06T09:17:55;96672.81;;;15.27;100.00
7614;BME280;3848;42.016;23.098;2024-01-06T09:20:22;96663.22;;;15.56;100.00
7614;BME280;3848;42.016;23.098;2024-01-06T09:22:50;96666.72;;;15.79;100.00
7614;BME280;3848;42.016;23.098;2024-01-06T09:25:17;96648.81;;;16.01;100.00
7614;BME280;3848;42.016;23.098;2024-01-06T09:27:44;96613.72;;;16.03;100.00
7614;BME280;3848;42.016;23.098;2024-01-06T09:30:12;96656.00;;;16.80;100.00
7614;BME280;3848;42.016;23.098;2024-01-06T09:32:39;96642.63;;;17.14;95.76
7614;BME280;3848;42.016;23.098;2024-01-06T09:35:07;96639.59;;;17.25;92.86
7614;BME280;3848;42.016;23.098;2024-01-06T09:37:34;96634.78;;;16.76;91.88
7614;BME280;3848;42.016;23.098;2024-01-06T09:40:01;96632.34;;;16.52;97.08
7614;BME280;3848;42.016;23.098;2024-01-06T09:42:28;96645.09;;;16.53;97.49
7614;BME280;3848;42.016;23.098;2024-01-06T09:44:55;96620.88;;;16.38;100.00
7614;BME280;3848;42.016;23.098;2024-01-06T09:47:25;96617.38;;;16.19;100.00
7614;BME280;3848;42.016;23.098;2024-01-06T09:49:55;96609.78;;;16.16;100.00
7614;BME280;3848;42.016;23.098;2024-01-06T09:52:26;96619.34;;;16.12;100.00
7614;BME280;3848;42.016;23.098;2024-01-06T09:54:54;96600.53;;;15.90;100.00
7614;BME280;3848;42.016;23.098;2024-01-06T09:57:21;96604.56;;;15.74;100.00
7614;BME280;3848;42.016;23.098;2024-01-06T09:59:48;96606.88;;;15.56;100.00
7614;BME280;3848;42.016;23.098;2024-01-06T10:02:16;96603.69;;;15.50;100.00
7614;BME280;3848;42.016;23.098;2024-01-06T10:04:45;96597.50;;;15.55;100.00
7614;BME280;3848;42.016;23.098;2024-01-06T10:07:12;96593.22;;;15.56;100.00
7614;BME280;3848;42.016;23.098;2024-01-06T10:09:40;96561.50;;;15.37;100.00
7614;BME280;3848;42.016;23.098;2024-01-06T10:12:08;96578.28;;;15.69;100.00
7614;BME280;3848;42.016;23.098;2024-01-06T10:14:35;96589.47;;;15.90;100.00
7614;BME280;3848;42.016;23.098;2024-01-06T10:17:06;96573.50;;;16.05;100.00
7614;BME280;3848;42.016;23.098;2024-01-06T10:19:34;96565.44;;;16.14;100.00
7614;BME280;3848;42.016;23.098;2024-01-06T10:22:03;96574.75;;;16.16;100.00
7614;BME280;3848;42.016;23.098;2024-01-06T10:24:30;96575.31;;;16.23;100.00
7614;BME280;3848;42.016;23.098;2024-01-06T10:26:57;96568.00;;;16.98;100.00
7614;BME280;3848;42.016;23.098;2024-01-06T10:29:25;96565.97;;;18.02;91.54
7614;BME280;3848;42.016;23.098;2024-01-06T10:31:53;96546.63;;;18.66;81.15
7614;BME280;3848;42.016;23.098;2024-01-06T10:34:21;96549.63;;;18.74;78.90
7614;BME280;3848;42.016;23.098;2024-01-06T10:36:49;96559.22;;;18.53;81.24
7614;BME280;3848;42.016;23.098;2024-01-06T10:39:19;96537.22;;;18.99;79.21
7614;BME280;3848;42.016;23.098;2024-01-06T10:41:48;96529.41;;;19.49;73.69
7614;BME280;3848;42.016;23.098;2024-01-06T10:44:16;96533.03;;;19.63;73.92
7614;BME280;3848;42.016;23.098;2024-01-06T10:46:44;96527.63;;;19.83;72.34
7614;BME280;3848;42.016;23.098;2024-01-06T10:49:11;96515.31;;;19.88;70.67
7614;BME280;3848;42.016;23.098;2024-01-06T10:51:39;96523.56;;;19.63;73.09
7614;BME280;3848;42.016;23.098;2024-01-06T10:54:06;96530.59;;;19.11;76.71
7614;BME280;3848;42.016;23.098;2024-01-06T10:56:38;96522.06;;;18.58;78.81
7614;BME280;3848;42.016;23.098;2024-01-06T10:59:05;96524.84;;;18.19;83.85
7614;BME280;3848;42.016;23.098;2024-01-06T11:01:33;96523.03;;;17.66;90.27
7614;BME280;3848;42.016;23.098;2024-01-06T11:04:02;96497.72;;;17.01;93.54
7614;BME280;3848;42.016;23.098;2024-01-06T11:06:32;96500.88;;;16.68;99.16
7614;BME280;3848;42.016;23.098;2024-01-06T11:09:04;96483.72;;;16.69;100.00
7614;BME280;3848;42.016;23.098;2024-01-06T11:11:32;96474.09;;;16.74;100.00
7614;BME280;3848;42.016;23.098;2024-01-06T11:14:18;96478.88;;;17.21;99.17
7614;BME280;3848;42.016;23.098;2024-01-06T11:16:45;96471.31;;;17.36;98.92
7614;BME280;3848;42.016;23.098;2024-01-06T11:19:44;96471.09;;;17.22;96.74
7614;BME280;3848;42.016;23.098;2024-01-06T11:22:27;96462.53;;;16.84;100.00
7614;BME280;3848;42.016;23.098;2024-01-06T11:25:03;96461.97;;;16.57;100.00
7614;BME280;3848;42.016;23.098;2024-01-06T11:27:31;96451.97;;;16.31;100.00
7614;BME280;3848;42.016;23.098;2024-01-06T11:30:03;96426.13;;;15.95;100.00
7614;BME280;3848;42.016;23.098;2024-01-06T11:32:31;96440.09;;;15.88;100.00
7614;BME280;3848;42.016;23.098;2024-01-06T11:35:09;96414.81;;;15.56;100.00
7614;BME280;3848;42.016;23.098;2024-01-06T11:37:51;96414.69;;;15.38;100.00
7614;BME280;3848;42.016;23.098;2024-01-06T11:40:23;96406.09;;;15.17;100.00
7614;BME280;3848;42.016;23.098;2024-01-06T11:42:57;96399.09;;;14.99;100.00
7614;BME280;3848;42.016;23.098;2024-01-06T11:45:28;96384.88;;;14.91;100.00
7614;BME280;3848;42.016;23.098;2024-01-06T11:47:56;96380.38;;;14.75;100.00
7614;BME280;3848;42.016;23.098;2024-01-06T11:50:24;96378.66;;;14.75;100.00
7614;BME280;3848;42.016;23.098;2024-01-06T11:52:52;96386.41;;;14.74;100.00
7614;BME280;3848;42.016;23.098;2024-01-06T11:55:20;96391.81;;;14.66;100.00
7614;BME280;3848;42.016;23.098;2024-01-06T11:57:48;96386.91;;;14.60;100.00
7614;BME280;3848;42.016;23.098;2024-01-06T12:00:16;96388.72;;;14.56;100.00
7614;BME280;3848;42.016;23.098;2024-01-06T12:02:45;96376.94;;;14.52;100.00
7614;BME280;3848;42.016;23.098;2024-01-06T12:05:13;96368.63;;;14.47;100.00
7614;BME280;3848;42.016;23.098;2024-01-06T12:07:41;96373.63;;;14.50;100.00
7614;BME280;3848;42.016;23.098;2024-01-06T12:10:09;96365.06;;;14.51;100.00
7614;BME280;3848;42.016;23.098;2024-01-06T12:12:37;96264.09;;;13.91;100.00
7614;BME280;3848;42.016;23.098;2024-01-06T12:15:05;96365.16;;;14.48;100.00
7614;BME280;3848;42.016;23.098;2024-01-06T12:17:35;96364.34;;;14.48;100.00
7614;BME280;3848;42.016;23.098;2024-01-06T12:20:04;96363.63;;;14.44;100.00
7614;BME280;3848;42.016;23.098;2024-01-06T12:22:34;96357.56;;;14.47;100.00
7614;BME280;3848;42.016;23.098;2024-01-06T12:25:02;96360.13;;;14.47;100.00
7614;BME280;3848;42.016;23.098;2024-01-06T12:27:31;96367.00;;;14.45;100.00
7614;BME280;3848;42.016;23.098;2024-01-06T12:29:58;96360.06;;;14.48;100.00
7614;BME280;3848;42.016;23.098;2024-01-06T12:32:26;96365.06;;;14.51;100.00
7614;BME280;3848;42.016;23.098;2024-01-06T12:34:53;96351.13;;;14.60;100.00
7614;BME280;3848;42.016;23.098;2024-01-06T12:37:23;96352.72;;;14.62;100.00
7614;BME280;3848;42.016;23.098;2024-01-06T12:39:50;96351.84;;;14.63;100.00
7614;BME280;3848;42.016;23.098;2024-01-06T12:42:17;96351.66;;;14.68;100.00
7614;BME280;3848;42.016;23.098;2024-01-06T12:44:47;96345.59;;;14.71;100.00
7614;BME280;3848;42.016;23.098;2024-01-06T12:47:14;96337.88;;;14.72;100.00
7614;BME280;3848;42.016;23.098;2024-01-06T12:49:42;96337.97;;;14.69;100.00
7614;BME280;3848;42.016;23.098;2024-01-06T12:52:09;96336.97;;;14.73;100.00
7614;BME280;3848;42.016;23.098;2024-01-06T12:54:40;96336.84;;;14.76;100.00
7614;BME280;3848;42.016;23.098;2024-01-06T12:57:08;96324.56;;;14.86;100.00
7614;BME280;3848;42.016;23.098;2024-01-06T12:59:35;96326.81;;;14.93;100.00
7614;BME280;3848;42.016;23.098;2024-01-06T13:02:03;96313.19;;;14.93;100.00
7614;BME280;3848;42.016;23.098;2024-01-06T13:04:30;96317.38;;;14.95;100.00
7614;BME280;3848;42.016;23.098;2024-01-06T13:06:58;96313.09;;;14.96;100.00
7614;BME280;3848;42.016;23.098;2024-01-06T13:09:25;96286.31;;;14.83;100.00